sensor_id;sensor_type;location;lat;lon;timestamp;pressure;altitude;pressure_sealevel;temperature;humidity
49529;BME280;35423;37.320;-121.762;2024-03-22T00:01:26;100188.15;;;39.06;10.60
49529;BME280;35423;37.320;-121.762;2024-03-22T00:03:53;100183.47;;;39.31;10.68
49529;BME280;35423;37.320;-121.762;2024-03-22T00:06:27;100182.81;;;38.43;10.76
49529;BME280;35423;37.320;-121.762;2024-03-22T00:08:58;100187.73;;;39.30;10.80
49529;BME280;35423;37.320;-121.762;2024-03-22T00:11:24;100191.46;;;39.04;10.95
49529;BME280;35423;37.320;-121.762;2024-03-22T00:13:52;100195.85;;;39.05;11.04
49529;BME280;35423;37.320;-121.762;2024-03-22T00:16:17;100196.00;;;37.91;11.09
49529;BME280;35423;37.320;-121.762;2024-03-22T00:18:49;100191.99;;;38.68;11.23
49529;BME280;35423;37.320;-121.762;2024-03-22T00:21:16;100190.50;;;38.34;11.16
49529;BME280;35423;37.320;-121.762;2024-03-22T00:23:44;100193.32;;;38.61;11.24
49529;BME280;35423;37.320;-121.762;2024-03-22T00:26:09;100196.85;;;38.63;11.37
49529;BME280;35423;37.320;-121.762;2024-03-22T00:28:35;100196.24;;;38.40;11.44
49529;BME280;35423;37.320;-121.762;2024-03-22T00:31:01;100197.37;;;38.00;11.63
49529;BME280;35423;37.320;-121.762;2024-03-22T00:33:28;100195.78;;;37.90;11.74
49529;BME280;35423;37.320;-121.762;2024-03-22T00:35:54;100196.05;;;37.30;11.83
49529;BME280;35423;37.320;-121.762;2024-03-22T00:38:22;100199.80;;;36.49;11.96
49529;BME280;35423;37.320;-121.762;2024-03-22T00:40:49;100203.90;;;37.01;12.14
49529;BME280;35423;37.320;-121.762;2024-03-22T00:43:16;100202.90;;;36.39;12.19
49529;BME280;35423;37.320;-121.762;2024-03-22T00:45:41;100207.12;;;36.76;12.31
49529;BME280;35423;37.320;-121.762;2024-03-22T00:48:07;100210.90;;;36.57;12.41
49529;BME280;35423;37.320;-121.762;2024-03-22T00:50:32;100210.89;;;36.65;12.47
49529;BME280;35423;37.320;-121.762;2024-03-22T00:53:02;100215.08;;;36.74;12.58
49529;BME280;35423;37.320;-121.762;2024-03-22T00:55:28;100216.56;;;36.28;12.71
49529;BME280;35423;37.320;-121.762;2024-03-22T00:57:53;100215.99;;;36.17;12.77
49529;BME280;35423;37.320;-121.762;2024-03-22T01:00:20;100213.94;;;36.37;12.87
49529;BME280;35423;37.320;-121.762;2024-03-22T01:02:45;100215.81;;;36.15;12.95
49529;BME280;35423;37.320;-121.762;2024-03-22T01:05:11;100211.68;;;36.15;12.98
49529;BME280;35423;37.320;-121.762;2024-03-22T01:07:36;100207.29;;;35.86;13.05
49529;BME280;35423;37.320;-121.762;2024-03-22T01:10:04;100205.70;;;35.75;13.10
49529;BME280;35423;37.320;-121.762;2024-03-22T01:12:30;100207.29;;;35.66;13.13
49529;BME280;35423;37.320;-121.762;2024-03-22T01:15:03;100208.13;;;36.02;13.14
49529;BME280;35423;37.320;-121.762;2024-03-22T01:17:32;100207.13;;;35.35;13.23
49529;BME280;35423;37.320;-121.762;2024-03-22T01:19:58;100203.53;;;35.55;13.33
49529;BME280;35423;37.320;-121.762;2024-03-22T01:22:32;100204.84;;;34.86;13.43
49529;BME280;35423;37.320;-121.762;2024-03-22T01:24:56;100206.68;;;34.60;13.55
49529;BME280;35423;37.320;-121.762;2024-03-22T01:27:21;100205.90;;;34.41;13.72
49529;BME280;35423;37.320;-121.762;2024-03-22T01:29:47;100209.09;;;34.58;13.87
49529;BME280;35423;37.320;-121.762;2024-03-22T01:32:16;100212.04;;;33.95;14.02
49529;BME280;35423;37.320;-121.762;2024-03-22T01:34:44;100211.83;;;34.23;14.14
49529;BME280;35423;37.320;-121.762;2024-03-22T01:37:11;100211.31;;;34.13;14.16
49529;BME280;35423;37.320;-121.762;2024-03-22T01:39:42;100209.86;;;33.90;14.31
49529;BME280;35423;37.320;-121.762;2024-03-22T01:42:12;100211.18;;;33.92;14.26
49529;BME280;35423;37.320;-121.762;2024-03-22T01:44:36;100208.80;;;33.48;14.27
49529;BME280;35423;37.320;-121.762;2024-03-22T01:47:05;100210.32;;;33.89;14.29
49529;BME280;35423;37.320;-121.762;2024-03-22T01:49:30;100212.63;;;33.09;14.43
49529;BME280;35423;37.320;-121.762;2024-03-22T01:52:00;100214.20;;;33.69;14.52
49529;BME280;35423;37.320;-121.762;2024-03-22T01:54:22;100211.46;;;32.85;14.61
49529;BME280;35423;37.320;-121.762;2024-03-22T01:56:48;100211.73;;;34.01;14.60
49529;BME280;35423;37.320;-121.762;2024-03-22T01:59:16;100209.35;;;33.20;14.80
49529;BME280;35423;37.320;-121.762;2024-03-22T02:01:43;100207.18;;;33.47;14.91
49529;BME280;35423;37.320;-121.762;2024-03-22T02:04:15;100202.99;;;32.95;15.12
49529;BME280;35423;37.320;-121.762;2024-03-22T02:06:41;100203.84;;;32.93;15.23
49529;BME280;35423;37.320;-121.762;2024-03-22T02:09:07;100204.62;;;32.95;15.36
49529;BME280;35423;37.320;-121.762;2024-03-22T02:11:33;100204.38;;;32.62;15.56
49529;BME280;35423;37.320;-121.762;2024-03-22T02:13:58;100205.34;;;32.68;15.70
49529;BME280;35423;37.320;-121.762;2024-03-22T02:16:27;100203.51;;;32.84;15.79
49529;BME280;35423;37.320;-121.762;2024-03-22T02:18:52;100200.81;;;32.76;15.82
49529;BME280;35423;37.320;-121.762;2024-03-22T02:21:19;100193.50;;;31.74;15.92
49529;BME280;35423;37.320;-121.762;2024-03-22T02:23:44;100191.17;;;32.12;16.02
49529;BME280;35423;37.320;-121.762;2024-03-22T02:26:12;100187.32;;;32.50;16.16
49529;BME280;35423;37.320;-121.762;2024-03-22T02:28:37;100186.69;;;32.40;16.25
49529;BME280;35423;37.320;-121.762;2024-03-22T02:31:03;100189.84;;;32.28;16.30
49529;BME280;35423;37.320;-121.762;2024-03-22T02:33:33;100184.43;;;32.18;16.40
49529;BME280;35423;37.320;-121.762;2024-03-22T02:35:59;100179.32;;;32.02;16.51
49529;BME280;35423;37.320;-121.762;2024-03-22T02:38:26;100178.01;;;31.80;16.70
49529;BME280;35423;37.320;-121.762;2024-03-22T02:41:01;100177.05;;;31.65;16.70
49529;BME280;35423;37.320;-121.762;2024-03-22T02:43:20;100182.50;;;31.05;16.73
49529;BME280;35423;37.320;-121.762;2024-03-22T02:45:52;100184.80;;;31.44;17.06
49529;BME280;35423;37.320;-121.762;2024-03-22T02:48:17;100185.36;;;30.94;17.10
49529;BME280;35423;37.320;-121.762;2024-03-22T02:50:46;100183.07;;;31.36;17.12
49529;BME280;35423;37.320;-121.762;2024-03-22T02:53:14;100183.27;;;31.64;17.28
49529;BME280;35423;37.320;-121.762;2024-03-22T02:55:48;100183.86;;;31.39;17.44
49529;BME280;35423;37.320;-121.762;2024-03-22T02:58:06;100180.34;;;31.08;17.65
49529;BME280;35423;37.320;-121.762;2024-03-22T03:00:27;100179.13;;;30.48;17.66
49529;BME280;35423;37.320;-121.762;2024-03-22T03:02:52;100177.43;;;30.64;17.74
49529;BME280;35423;37.320;-121.762;2024-03-22T03:05:19;100180.17;;;31.17;17.80
49529;BME280;35423;37.320;-121.762;2024-03-22T03:07:46;100183.40;;;30.52;17.90
49529;BME280;35423;37.320;-121.762;2024-03-22T03:10:12;100181.36;;;30.37;18.03
49529;BME280;35423;37.320;-121.762;2024-03-22T03:12:40;100176.77;;;30.17;18.13
49529;BME280;35423;37.320;-121.762;2024-03-22T03:15:07;100177.50;;;30.01;18.24
49529;BME280;35423;37.320;-121.762;2024-03-22T03:17:33;100177.00;;;29.82;18.38
49529;BME280;35423;37.320;-121.762;2024-03-22T03:19:59;100178.38;;;30.13;18.43
49529;BME280;35423;37.320;-121.762;2024-03-22T03:22:25;100177.15;;;29.46;18.56
49529;BME280;35423;37.320;-121.762;2024-03-22T03:24:50;100171.19;;;29.85;18.65
49529;BME280;35423;37.320;-121.762;2024-03-22T03:27:16;100170.79;;;28.90;18.68
49529;BME280;35423;37.320;-121.762;2024-03-22T03:29:42;100173.21;;;29.75;18.74
49529;BME280;35423;37.320;-121.762;2024-03-22T03:32:08;100185.32;;;29.67;18.87
49529;BME280;35423;37.320;-121.762;2024-03-22T03:34:36;100193.27;;;29.35;18.94
49529;BME280;35423;37.320;-121.762;2024-03-22T03:37:01;100203.61;;;29.79;19.03
49529;BME280;35423;37.320;-121.762;2024-03-22T03:39:32;100212.23;;;29.50;19.03
49529;BME280;35423;37.320;-121.762;2024-03-22T03:42:01;100219.17;;;29.47;19.15
49529;BME280;35423;37.320;-121.762;2024-03-22T03:44:28;100225.71;;;29.44;19.21
49529;BME280;35423;37.320;-121.762;2024-03-22T03:46:54;100234.92;;;29.67;19.18
49529;BME280;35423;37.320;-121.762;2024-03-22T03:49:24;100237.61;;;28.59;19.26
49529;BME280;35423;37.320;-121.762;2024-03-22T03:51:53;100243.35;;;29.21;19.30
49529;BME280;35423;37.320;-121.762;2024-03-22T03:54:21;100247.61;;;28.35;19.44
49529;BME280;35423;37.320;-121.762;2024-03-22T03:57:10;100249.47;;;29.48;19.54
49529;BME280;35423;37.320;-121.762;2024-03-22T03:59:40;100246.65;;;28.90;19.57
49529;BME280;35423;37.320;-121.762;2024-03-22T04:02:08;100250.28;;;28.80;19.66
49529;BME280;35423;37.320;-121.762;2024-03-22T04:04:40;100254.09;;;28.77;19.74
49529;BME280;35423;37.320;-121.762;2024-03-22T04:07:10;100261.39;;;29.09;19.68
49529;BME280;35423;37.320;-121.762;2024-03-22T04:09:34;100269.25;;;29.25;19.72
49529;BME280;35423;37.320;-121.762;2024-03-22T04:12:01;100272.22;;;29.10;19.87
49529;BME280;35423;37.320;-121.762;2024-03-22T04:14:24;100270.54;;;28.38;20.06
49529;BME280;35423;37.320;-121.762;2024-03-22T04:16:52;100269.01;;;28.75;20.17
49529;BME280;35423;37.320;-121.762;2024-03-22T04:19:25;100270.45;;;28.33;20.32
49529;BME280;35423;37.320;-121.762;2024-03-22T04:21:50;100269.73;;;28.41;20.45
49529;BME280;35423;37.320;-121.762;2024-03-22T04:24:16;100271.07;;;27.74;20.54
49529;BME280;35423;37.320;-121.762;2024-03-22T04:26:43;100271.28;;;28.12;20.64
49529;BME280;35423;37.320;-121.762;2024-03-22T04:29:10;100269.80;;;28.02;20.69
49529;BME280;35423;37.320;-121.762;2024-03-22T04:31:41;100266.26;;;27.80;20.78
49529;BME280;35423;37.320;-121.762;2024-03-22T04:34:09;100266.24;;;27.88;20.86
49529;BME280;35423;37.320;-121.762;2024-03-22T04:36:36;100269.78;;;27.97;20.98
49529;BME280;35423;37.320;-121.762;2024-03-22T04:39:02;100271.69;;;27.80;21.10
49529;BME280;35423;37.320;-121.762;2024-03-22T04:41:28;100270.45;;;27.41;21.18
49529;BME280;35423;37.320;-121.762;2024-03-22T04:43:58;100267.57;;;27.58;21.22
49529;BME280;35423;37.320;-121.762;2024-03-22T04:46:25;100261.69;;;26.95;21.26
49529;BME280;35423;37.320;-121.762;2024-03-22T04:48:51;100261.14;;;27.36;21.26
49529;BME280;35423;37.320;-121.762;2024-03-22T04:51:15;100260.67;;;26.84;21.28
49529;BME280;35423;37.320;-121.762;2024-03-22T04:53:43;100262.89;;;27.48;21.31
49529;BME280;35423;37.320;-121.762;2024-03-22T04:56:12;100264.57;;;27.15;21.42
49529;BME280;35423;37.320;-121.762;2024-03-22T04:58:36;100266.24;;;27.06;21.48
49529;BME280;35423;37.320;-121.762;2024-03-22T05:01:03;100265.33;;;26.97;21.48
49529;BME280;35423;37.320;-121.762;2024-03-22T05:03:29;100270.88;;;26.54;21.51
49529;BME280;35423;37.320;-121.762;2024-03-22T05:05:56;100269.19;;;26.71;21.52
49529;BME280;35423;37.320;-121.762;2024-03-22T05:08:27;100270.97;;;25.91;21.49
49529;BME280;35423;37.320;-121.762;2024-03-22T05:10:54;100271.88;;;26.68;21.57
49529;BME280;35423;37.320;-121.762;2024-03-22T05:13:20;100277.11;;;26.05;21.50
49529;BME280;35423;37.320;-121.762;2024-03-22T05:15:45;100279.28;;;26.55;21.48
49529;BME280;35423;37.320;-121.762;2024-03-22T05:18:13;100278.42;;;26.80;21.49
49529;BME280;35423;37.320;-121.762;2024-03-22T05:20:37;100274.60;;;26.73;21.48
49529;BME280;35423;37.320;-121.762;2024-03-22T05:23:02;100272.94;;;26.98;21.67
49529;BME280;35423;37.320;-121.762;2024-03-22T05:25:28;100279.04;;;26.51;21.83
49529;BME280;35423;37.320;-121.762;2024-03-22T05:27:53;100280.36;;;26.56;22.02
49529;BME280;35423;37.320;-121.762;2024-03-22T05:30:22;100276.32;;;25.61;22.18
49529;BME280;35423;37.320;-121.762;2024-03-22T05:32:52;100273.54;;;26.19;22.33
49529;BME280;35423;37.320;-121.762;2024-03-22T05:35:18;100273.00;;;25.11;22.40
49529;BME280;35423;37.320;-121.762;2024-03-22T05:37:42;100270.41;;;26.05;22.47
49529;BME280;35423;37.320;-121.762;2024-03-22T05:40:08;100265.76;;;25.96;22.49
49529;BME280;35423;37.320;-121.762;2024-03-22T05:42:32;100262.89;;;25.87;22.57
49529;BME280;35423;37.320;-121.762;2024-03-22T05:44:58;100264.92;;;25.79;22.64
49529;BME280;35423;37.320;-121.762;2024-03-22T05:47:25;100265.43;;;25.45;22.70
49529;BME280;35423;37.320;-121.762;2024-03-22T05:49:51;100262.02;;;25.83;22.80
49529;BME280;35423;37.320;-121.762;2024-03-22T05:52:17;100264.30;;;25.03;22.89
49529;BME280;35423;37.320;-121.762;2024-03-22T05:54:53;100265.42;;;25.72;22.94
49529;BME280;35423;37.320;-121.762;2024-03-22T05:57:21;100263.48;;;25.16;23.05
49529;BME280;35423;37.320;-121.762;2024-03-22T05:59:50;100264.39;;;25.39;23.08
49529;BME280;35423;37.320;-121.762;2024-03-22T06:02:15;100268.41;;;25.39;23.07
49529;BME280;35423;37.320;-121.762;2024-03-22T06:04:39;100270.77;;;25.14;23.05
49529;BME280;35423;37.320;-121.762;2024-03-22T06:07:07;100271.33;;;25.57;23.13
49529;BME280;35423;37.320;-121.762;2024-03-22T06:09:34;100277.10;;;25.20;23.26
49529;BME280;35423;37.320;-121.762;2024-03-22T06:12:00;100278.46;;;25.60;23.30
49529;BME280;35423;37.320;-121.762;2024-03-22T06:14:29;100278.43;;;24.76;23.16
49529;BME280;35423;37.320;-121.762;2024-03-22T06:16:50;100278.66;;;25.32;23.11
49529;BME280;35423;37.320;-121.762;2024-03-22T06:19:17;100278.81;;;25.15;23.28
49529;BME280;35423;37.320;-121.762;2024-03-22T06:21:44;100277.53;;;25.00;23.48
49529;BME280;35423;37.320;-121.762;2024-03-22T06:24:10;100279.24;;;25.28;23.63
49529;BME280;35423;37.320;-121.762;2024-03-22T06:26:38;100281.29;;;24.94;23.73
49529;BME280;35423;37.320;-121.762;2024-03-22T06:29:07;100278.17;;;25.02;23.88
49529;BME280;35423;37.320;-121.762;2024-03-22T06:31:37;100270.84;;;24.89;24.01
49529;BME280;35423;37.320;-121.762;2024-03-22T06:34:03;100267.95;;;25.07;24.11
49529;BME280;35423;37.320;-121.762;2024-03-22T06:36:30;100262.71;;;24.71;24.17
49529;BME280;35423;37.320;-121.762;2024-03-22T06:38:56;100258.54;;;24.69;24.24
49529;BME280;35423;37.320;-121.762;2024-03-22T06:41:28;100247.90;;;24.23;24.32
49529;BME280;35423;37.320;-121.762;2024-03-22T06:43:54;100243.77;;;24.60;24.37
49529;BME280;35423;37.320;-121.762;2024-03-22T06:46:20;100242.55;;;24.54;24.45
49529;BME280;35423;37.320;-121.762;2024-03-22T06:48:46;100237.58;;;24.41;24.63
49529;BME280;35423;37.320;-121.762;2024-03-22T06:51:14;100237.24;;;24.35;24.71
49529;BME280;35423;37.320;-121.762;2024-03-22T06:53:39;100238.18;;;24.58;24.75
49529;BME280;35423;37.320;-121.762;2024-03-22T06:56:08;100238.06;;;24.76;24.84
49529;BME280;35423;37.320;-121.762;2024-03-22T06:58:37;100240.18;;;24.49;24.88
49529;BME280;35423;37.320;-121.762;2024-03-22T07:01:03;100240.53;;;24.25;24.83
49529;BME280;35423;37.320;-121.762;2024-03-22T07:03:31;100240.40;;;24.19;24.83
49529;BME280;35423;37.320;-121.762;2024-03-22T07:05:59;100240.56;;;24.33;24.96
49529;BME280;35423;37.320;-121.762;2024-03-22T07:08:28;100241.12;;;24.01;25.03
49529;BME280;35423;37.320;-121.762;2024-03-22T07:10:56;100237.30;;;24.38;25.10
49529;BME280;35423;37.320;-121.762;2024-03-22T07:13:22;100240.50;;;23.82;25.14
49529;BME280;35423;37.320;-121.762;2024-03-22T07:15:53;100240.19;;;24.17;25.24
49529;BME280;35423;37.320;-121.762;2024-03-22T07:18:18;100244.97;;;23.29;25.40
49529;BME280;35423;37.320;-121.762;2024-03-22T07:20:46;100249.21;;;23.90;25.50
49529;BME280;35423;37.320;-121.762;2024-03-22T07:23:17;100260.78;;;23.34;25.56
49529;BME280;35423;37.320;-121.762;2024-03-22T07:25:51;100266.78;;;23.77;25.58
49529;BME280;35423;37.320;-121.762;2024-03-22T07:28:16;100268.76;;;23.74;25.59
49529;BME280;35423;37.320;-121.762;2024-03-22T07:30:48;100267.67;;;23.68;25.61
49529;BME280;35423;37.320;-121.762;2024-03-22T07:33:09;100265.26;;;23.59;25.70
49529;BME280;35423;37.320;-121.762;2024-03-22T07:35:39;100264.49;;;23.76;25.76
49529;BME280;35423;37.320;-121.762;2024-03-22T07:38:07;100261.92;;;23.66;25.87
49529;BME280;35423;37.320;-121.762;2024-03-22T07:40:33;100265.73;;;23.09;25.93
49529;BME280;35423;37.320;-121.762;2024-03-22T07:42:57;100264.72;;;23.33;25.95
49529;BME280;35423;37.320;-121.762;2024-03-22T07:45:25;100258.47;;;23.28;26.04
49529;BME280;35423;37.320;-121.762;2024-03-22T07:47:52;100256.51;;;23.46;26.07
49529;BME280;35423;37.320;-121.762;2024-03-22T07:50:19;100256.02;;;22.93;26.11
49529;BME280;35423;37.320;-121.762;2024-03-22T07:52:44;100249.68;;;23.12;26.18
49529;BME280;35423;37.320;-121.762;2024-03-22T07:55:17;100237.46;;;23.32;26.16
49529;BME280;35423;37.320;-121.762;2024-03-22T07:57:37;100223.71;;;22.96;26.25
49529;BME280;35423;37.320;-121.762;2024-03-22T08:00:15;100217.48;;;22.89;26.31
49529;BME280;35423;37.320;-121.762;2024-03-22T08:02:41;100211.45;;;23.28;26.41
49529;BME280;35423;37.320;-121.762;2024-03-22T08:05:11;100212.33;;;23.21;26.50
49529;BME280;35423;37.320;-121.762;2024-03-22T08:07:38;100214.65;;;22.72;26.54
49529;BME280;35423;37.320;-121.762;2024-03-22T08:10:05;100213.82;;;23.24;26.58
49529;BME280;35423;37.320;-121.762;2024-03-22T08:12:35;100210.69;;;22.71;26.61
49529;BME280;35423;37.320;-121.762;2024-03-22T08:14:59;100208.89;;;23.13;26.71
49529;BME280;35423;37.320;-121.762;2024-03-22T08:17:32;100199.56;;;22.98;26.87
49529;BME280;35423;37.320;-121.762;2024-03-22T08:19:59;100193.49;;;22.79;26.99
49529;BME280;35423;37.320;-121.762;2024-03-22T08:22:24;100189.69;;;22.27;27.06
49529;BME280;35423;37.320;-121.762;2024-03-22T08:24:50;100188.78;;;22.67;27.15
49529;BME280;35423;37.320;-121.762;2024-03-22T08:27:16;100184.94;;;22.06;27.24
49529;BME280;35423;37.320;-121.762;2024-03-22T08:29:44;100180.55;;;22.45;27.37
49529;BME280;35423;37.320;-121.762;2024-03-22T08:32:12;100180.23;;;22.63;27.45
49529;BME280;35423;37.320;-121.762;2024-03-22T08:34:40;100179.50;;;22.59;27.48
49529;BME280;35423;37.320;-121.762;2024-03-22T08:37:06;100182.05;;;22.59;27.48
49529;BME280;35423;37.320;-121.762;2024-03-22T08:39:32;100189.22;;;22.57;27.47
49529;BME280;35423;37.320;-121.762;2024-03-22T08:41:58;100190.33;;;22.30;27.55
49529;BME280;35423;37.320;-121.762;2024-03-22T08:44:26;100187.98;;;22.31;27.59
49529;BME280;35423;37.320;-121.762;2024-03-22T08:46:50;100182.87;;;22.50;27.61
49529;BME280;35423;37.320;-121.762;2024-03-22T08:49:16;100177.91;;;21.74;27.63
49529;BME280;35423;37.320;-121.762;2024-03-22T08:51:43;100174.47;;;22.29;27.58
49529;BME280;35423;37.320;-121.762;2024-03-22T08:54:14;100176.09;;;22.29;27.65
49529;BME280;35423;37.320;-121.762;2024-03-22T08:56:41;100176.56;;;22.29;27.63
49529;BME280;35423;37.320;-121.762;2024-03-22T08:59:11;100179.07;;;22.75;27.64
49529;BME280;35423;37.320;-121.762;2024-03-22T09:01:34;100184.50;;;22.45;27.75
49529;BME280;35423;37.320;-121.762;2024-03-22T09:04:00;100184.25;;;22.43;27.83
49529;BME280;35423;37.320;-121.762;2024-03-22T09:06:28;100181.03;;;21.99;27.90
49529;BME280;35423;37.320;-121.762;2024-03-22T09:08:53;100179.47;;;22.40;27.96
49529;BME280;35423;37.320;-121.762;2024-03-22T09:11:19;100173.94;;;21.74;27.96
49529;BME280;35423;37.320;-121.762;2024-03-22T09:13:44;100172.05;;;22.25;27.93
49529;BME280;35423;37.320;-121.762;2024-03-22T09:16:11;100178.90;;;22.43;27.98
49529;BME280;35423;37.320;-121.762;2024-03-22T09:18:36;100182.05;;;22.35;28.10
49529;BME280;35423;37.320;-121.762;2024-03-22T09:21:02;100189.92;;;22.31;28.14
49529;BME280;35423;37.320;-121.762;2024-03-22T09:23:30;100196.86;;;22.07;28.18
49529;BME280;35423;37.320;-121.762;2024-03-22T09:25:57;100204.63;;;22.56;28.21
49529;BME280;35423;37.320;-121.762;2024-03-22T09:28:23;100208.58;;;22.25;28.27
49529;BME280;35423;37.320;-121.762;2024-03-22T09:30:48;100213.68;;;21.96;28.32
49529;BME280;35423;37.320;-121.762;2024-03-22T09:33:14;100224.47;;;22.13;28.31
49529;BME280;35423;37.320;-121.762;2024-03-22T09:35:41;100228.20;;;22.29;28.36
49529;BME280;35423;37.320;-121.762;2024-03-22T09:38:07;100226.83;;;22.20;28.41
49529;BME280;35423;37.320;-121.762;2024-03-22T09:40:34;100230.32;;;22.11;28.46
49529;BME280;35423;37.320;-121.762;2024-03-22T09:43:02;100230.52;;;22.02;28.53
49529;BME280;35423;37.320;-121.762;2024-03-22T09:45:24;100225.78;;;21.76;28.52
49529;BME280;35423;37.320;-121.762;2024-03-22T09:47:51;100217.99;;;21.55;28.48
49529;BME280;35423;37.320;-121.762;2024-03-22T09:50:16;100219.93;;;21.36;28.50
49529;BME280;35423;37.320;-121.762;2024-03-22T09:52:45;100215.04;;;21.79;28.46
49529;BME280;35423;37.320;-121.762;2024-03-22T09:55:13;100221.73;;;21.97;28.50
49529;BME280;35423;37.320;-121.762;2024-03-22T09:57:39;100227.33;;;21.60;28.61
49529;BME280;35423;37.320;-121.762;2024-03-22T10:00:08;100226.53;;;21.57;28.69
49529;BME280;35423;37.320;-121.762;2024-03-22T10:02:38;100221.46;;;21.56;28.75
49529;BME280;35423;37.320;-121.762;2024-03-22T10:05:10;100221.82;;;21.81;28.70
49529;BME280;35423;37.320;-121.762;2024-03-22T10:07:44;100233.38;;;21.75;28.75
49529;BME280;35423;37.320;-121.762;2024-03-22T10:10:11;100245.31;;;21.65;28.88
49529;BME280;35423;37.320;-121.762;2024-03-22T10:12:41;100247.55;;;21.66;28.87
49529;BME280;35423;37.320;-121.762;2024-03-22T10:15:05;100250.46;;;21.67;28.82
49529;BME280;35423;37.320;-121.762;2024-03-22T10:17:25;100255.43;;;20.77;28.74
49529;BME280;35423;37.320;-121.762;2024-03-22T10:19:50;100261.33;;;21.77;28.78
49529;BME280;35423;37.320;-121.762;2024-03-22T10:22:17;100266.82;;;21.20;28.90
49529;BME280;35423;37.320;-121.762;2024-03-22T10:24:41;100272.29;;;21.63;28.97
49529;BME280;35423;37.320;-121.762;2024-03-22T10:27:07;100283.00;;;21.81;29.05
49529;BME280;35423;37.320;-121.762;2024-03-22T10:29:33;100275.14;;;21.49;29.16
49529;BME280;35423;37.320;-121.762;2024-03-22T10:32:02;100270.41;;;21.40;29.22
49529;BME280;35423;37.320;-121.762;2024-03-22T10:34:28;100270.75;;;20.91;29.24
49529;BME280;35423;37.320;-121.762;2024-03-22T10:37:12;100265.42;;;21.42;29.25
49529;BME280;35423;37.320;-121.762;2024-03-22T10:39:43;100257.70;;;21.22;29.20
49529;BME280;35423;37.320;-121.762;2024-03-22T10:42:05;100247.49;;;21.42;29.27
49529;BME280;35423;37.320;-121.762;2024-03-22T10:44:25;100248.04;;;21.29;29.40
49529;BME280;35423;37.320;-121.762;2024-03-22T10:47:00;100244.25;;;21.42;29.50
49529;BME280;35423;37.320;-121.762;2024-03-22T10:49:17;100231.90;;;20.73;29.50
49529;BME280;35423;37.320;-121.762;2024-03-22T10:51:43;100224.83;;;21.24;29.48
49529;BME280;35423;37.320;-121.762;2024-03-22T10:54:07;100216.76;;;21.65;29.48
49529;BME280;35423;37.320;-121.762;2024-03-22T10:56:33;100213.98;;;20.95;29.32
49529;BME280;35423;37.320;-121.762;2024-03-22T10:59:03;100215.24;;;21.46;29.18
49529;BME280;35423;37.320;-121.762;2024-03-22T11:01:31;100210.16;;;20.86;29.50
49529;BME280;35423;37.320;-121.762;2024-03-22T11:03:51;100204.03;;;21.33;29.79
49529;BME280;35423;37.320;-121.762;2024-03-22T11:06:20;100208.40;;;20.31;29.93
49529;BME280;35423;37.320;-121.762;2024-03-22T11:08:42;100214.12;;;20.85;29.90
49529;BME280;35423;37.320;-121.762;2024-03-22T11:11:12;100209.05;;;21.32;29.90
49529;BME280;35423;37.320;-121.762;2024-03-22T11:13:40;100207.37;;;21.03;30.01
49529;BME280;35423;37.320;-121.762;2024-03-22T11:16:06;100205.43;;;20.99;30.08
49529;BME280;35423;37.320;-121.762;2024-03-22T11:18:32;100205.81;;;21.20;30.08
49529;BME280;35423;37.320;-121.762;2024-03-22T11:20:58;100205.82;;;21.44;30.30
49529;BME280;35423;37.320;-121.762;2024-03-22T11:23:26;100201.19;;;20.41;30.40
49529;BME280;35423;37.320;-121.762;2024-03-22T11:25:52;100200.09;;;20.81;30.38
49529;BME280;35423;37.320;-121.762;2024-03-22T11:28:18;100199.06;;;20.10;30.36
49529;BME280;35423;37.320;-121.762;2024-03-22T11:30:44;100201.47;;;20.77;30.33
49529;BME280;35423;37.320;-121.762;2024-03-22T11:33:09;100205.56;;;20.98;30.36
49529;BME280;35423;37.320;-121.762;2024-03-22T11:35:37;100210.26;;;20.61;30.50
49529;BME280;35423;37.320;-121.762;2024-03-22T11:38:04;100212.26;;;20.44;30.66
49529;BME280;35423;37.320;-121.762;2024-03-22T11:40:33;100212.12;;;19.93;30.75
49529;BME280;35423;37.320;-121.762;2024-03-22T11:42:58;100210.42;;;20.37;30.79
49529;BME280;35423;37.320;-121.762;2024-03-22T11:45:24;100201.58;;;19.87;30.83
49529;BME280;35423;37.320;-121.762;2024-03-22T11:47:49;100195.14;;;20.23;30.84
49529;BME280;35423;37.320;-121.762;2024-03-22T11:50:16;100193.64;;;19.71;30.82
49529;BME280;35423;37.320;-121.762;2024-03-22T11:52:41;100185.80;;;20.35;30.81
49529;BME280;35423;37.320;-121.762;2024-03-22T11:55:07;100178.82;;;20.33;30.76
49529;BME280;35423;37.320;-121.762;2024-03-22T11:57:33;100175.25;;;19.94;30.80
49529;BME280;35423;37.320;-121.762;2024-03-22T12:00:09;100174.85;;;20.10;30.81
49529;BME280;35423;37.320;-121.762;2024-03-22T12:02:33;100181.02;;;20.02;31.02
49529;BME280;35423;37.320;-121.762;2024-03-22T12:05:01;100185.11;;;19.93;31.08
49529;BME280;35423;37.320;-121.762;2024-03-22T12:07:29;100183.70;;;19.38;31.15
49529;BME280;35423;37.320;-121.762;2024-03-22T12:09:53;100186.49;;;19.80;31.17
49529;BME280;35423;37.320;-121.762;2024-03-22T12:12:24;100183.49;;;18.86;31.14
49529;BME280;35423;37.320;-121.762;2024-03-22T12:14:46;100175.41;;;19.72;31.08
49529;BME280;35423;37.320;-121.762;2024-03-22T12:17:14;100164.23;;;19.66;30.94
49529;BME280;35423;37.320;-121.762;2024-03-22T12:19:40;100171.50;;;19.35;30.83